Time;durP1;ratioP1;P1;durP2;ratioP2;P2;SDS_P1;SDS_P2;PMS_P1;PMS_P2;Temp;Humidity;BMP_temperature;BMP_pressure;BME280_temperature;BME280_humidity;BME280_pressure;Samples;Min_cycle;Max_cycle;Signal;HPM_P1;HPM_P2
2021/03/15 00:01:13;;;;;;;45.35;29.87;;;;;;;2.20;73.58;99598.98;127988;1099;22602;-78
2021/03/15 00:03:42;;;;;;;51.98;34.27;;;;;;;2.20;73.39;99601.59;128246;1099;22721;-77
2021/03/15 00:06:10;;;;;;;55.38;35.98;;;;;;;2.20;72.86;99605.05;128309;1101;22648;-77
2021/03/15 00:08:38;;;;;;;72.62;43.87;;;;;;;2.19;73.29;99600.77;128162;1099;22496;-78
2021/03/15 00:11:06;;;;;;;65.80;42.93;;;;;;;2.17;73.10;99602.70;128242;1101;22512;-78
2021/03/15 00:13:35;;;;;;;73.35;45.25;;;;;;;2.17;73.47;99596.66;128243;1101;23439;-78
2021/03/15 00:16:03;;;;;;;77.80;59.77;;;;;;;2.12;73.42;99599.65;128201;1101;22484;-78
2021/03/15 00:18:31;;;;;;;76.37;53.52;;;;;;;2.08;73.52;99608.69;128215;1100;22541;-77
2021/03/15 00:21:00;;;;;;;68.60;46.37;;;;;;;2.03;73.48;99603.03;128015;1101;22763;-78
2021/03/15 00:23:28;;;;;;;71.92;49.03;;;;;;;2.03;73.32;99608.25;128012;1100;22616;-77
2021/03/15 00:25:56;;;;;;;78.90;49.38;;;;;;;2.02;72.93;99604.00;128181;1101;22933;-78
2021/03/15 00:28:25;;;;;;;75.62;47.33;;;;;;;1.97;73.14;99609.62;127977;1101;24294;-77
2021/03/15 00:30:53;;;;;;;63.15;44.08;;;;;;;1.96;73.66;99607.95;128237;1101;22526;-79
2021/03/15 00:33:23;;;;;;;85.55;53.23;;;;;;;1.95;73.92;99610.70;128191;1101;22594;-79
2021/03/15 00:35:51;;;;;;;94.28;57.38;;;;;;;1.93;73.53;99615.20;127991;1101;22496;-76
2021/03/15 00:38:20;;;;;;;86.67;54.63;;;;;;;1.88;73.14;99608.61;128157;1101;22526;-79
2021/03/15 00:40:48;;;;;;;90.85;54.88;;;;;;;1.82;72.98;99611.73;127989;1101;22492;-77
2021/03/15 00:43:16;;;;;;;73.95;50.55;;;;;;;1.78;72.86;99601.71;128263;1101;22579;-77
2021/03/15 00:45:44;;;;;;;72.90;47.70;;;;;;;1.74;72.88;99601.15;128211;1100;23254;-77
2021/03/15 00:48:13;;;;;;;64.37;43.95;;;;;;;1.72;73.68;99594.41;127975;1101;24383;-77
2021/03/15 00:50:42;;;;;;;64.60;39.90;;;;;;;1.69;72.90;99592.88;127993;1100;22570;-77
2021/03/15 00:53:17;;;;;;;47.58;34.60;;;;;;;1.69;73.07;99590.28;128237;1101;22512;-78
2021/03/15 00:55:46;;;;;;;50.17;34.70;;;;;;;1.70;73.16;99591.10;128221;1100;25271;-77
2021/03/15 00:58:15;;;;;;;45.12;30.02;;;;;;;1.69;73.16;99590.28;128031;1101;24597;-77
2021/03/15 01:00:47;;;;;;;37.30;26.05;;;;;;;1.70;73.57;99597.16;127999;1101;24357;-76
2021/03/15 01:03:23;;;;;;;35.40;23.52;;;;;;;1.71;73.71;99590.17;128034;1101;22491;-76
2021/03/15 01:05:58;;;;;;;31.40;21.37;;;;;;;1.72;74.13;99600.44;128024;1101;22627;-79
2021/03/15 01:08:42;;;;;;;26.27;18.52;;;;;;;1.76;73.86;99607.03;128234;1099;22521;-79
2021/03/15 01:11:24;;;;;;;40.00;30.57;;;;;;;1.78;73.99;99609.52;128099;1099;22541;-77
2021/03/15 01:14:07;;;;;;;39.50;33.15;;;;;;;1.76;73.67;99604.42;128072;1101;22573;-77
2021/03/15 01:16:49;;;;;;;39.25;30.77;;;;;;;1.71;74.34;99598.80;128035;1101;22636;-77
2021/03/15 01:19:18;;;;;;;53.83;37.03;;;;;;;1.67;73.72;99605.23;128192;1099;22492;-77
2021/03/15 01:21:46;;;;;;;46.02;35.15;;;;;;;1.57;74.16;99599.97;127960;1099;24833;-77
2021/03/15 01:24:14;;;;;;;55.33;38.08;;;;;;;1.49;73.58;99593.73;128215;1101;22526;-77
2021/03/15 01:26:42;;;;;;;59.77;39.90;;;;;;;1.44;74.18;99585.51;128229;1099;22473;-77
2021/03/15 01:29:10;;;;;;;56.60;40.67;;;;;;;1.40;73.52;99585.76;128146;1099;22570;-77
2021/03/15 01:31:38;;;;;;;62.30;41.13;;;;;;;1.37;73.54;99582.59;128206;1099;22521;-77
2021/03/15 01:34:07;;;;;;;54.13;38.35;;;;;;;1.32;73.78;99575.14;128019;1100;22769;-77
2021/03/15 01:36:35;;;;;;;56.20;38.00;;;;;;;1.29;73.95;99577.17;128019;1101;22567;-77
2021/03/15 01:39:04;;;;;;;56.75;39.20;;;;;;;1.25;73.93;99571.41;128242;1099;22518;-76
2021/03/15 01:41:32;;;;;;;55.03;36.75;;;;;;;1.21;74.15;99563.99;128050;1100;22498;-77
2021/03/15 01:44:00;;;;;;;52.48;35.60;;;;;;;1.20;73.70;99567.53;128075;1101;23376;-78
2021/03/15 01:46:29;;;;;;;51.45;35.05;;;;;;;1.17;74.09;99568.63;128293;1100;22500;-78
2021/03/15 01:48:57;;;;;;;46.55;32.67;;;;;;;1.14;73.52;99567.09;128239;1100;22602;-77
2021/03/15 01:51:26;;;;;;;46.50;33.05;;;;;;;1.12;73.57;99576.80;128120;1101;22662;-78
2021/03/15 01:53:55;;;;;;;48.92;32.60;;;;;;;1.09;74.28;99566.64;128199;1099;22520;-77
2021/03/15 01:56:23;;;;;;;44.57;31.03;;;;;;;1.09;73.58;99571.02;128127;1100;22503;-78
2021/03/15 01:58:52;;;;;;;46.55;31.12;;;;;;;1.06;74.69;99574.69;128202;1099;24412;-77
2021/03/15 02:01:20;;;;;;;51.30;37.42;;;;;;;1.00;73.55;99567.42;128157;1101;22588;-78
2021/03/15 02:03:49;;;;;;;55.38;38.35;;;;;;;0.91;74.04;99558.58;127987;1100;22622;-78
2021/03/15 02:06:17;;;;;;;53.33;36.25;;;;;;;0.83;73.77;99563.56;127972;1100;22627;-77
2021/03/15 02:08:45;;;;;;;54.25;38.10;;;;;;;0.76;74.20;99569.39;128209;1101;24610;-77
2021/03/15 02:11:35;;;;;;;50.73;33.75;;;;;;;0.67;75.00;99564.00;128239;1101;24642;-77
2021/03/15 02:14:17;;;;;;;50.52;34.15;;;;;;;0.62;74.38;99563.53;128243;1100;22500;-77
2021/03/15 02:16:59;;;;;;;50.05;32.98;;;;;;;0.61;75.10;99561.89;128237;1101;24789;-77
2021/03/15 02:20:03;;;;;;;51.58;37.38;;;;;;;0.67;75.80;99558.80;128248;1101;22832;-78
2021/03/15 02:23:10;;;;;;;45.10;32.35;;;;;;;0.70;75.55;99560.34;127940;1105;24615;-77
2021/03/15 02:26:16;;;;;;;51.98;37.67;;;;;;;0.71;75.35;99554.18;127873;1103;22670;-77
2021/03/15 02:29:11;;;;;;;46.92;33.83;;;;;;;0.69;75.77;99562.09;127602;1105;24922;-78
2021/03/15 02:32:18;;;;;;;45.88;31.90;;;;;;;0.69;75.06;99569.88;127951;1105;22572;-78
2021/03/15 02:35:00;;;;;;;42.50;28.83;;;;;;;0.64;75.63;99569.45;127922;1105;22716;-77
2021/03/15 02:38:09;;;;;;;44.40;28.50;;;;;;;0.58;75.84;99569.94;127658;1105;22611;-77
2021/03/15 02:40:46;;;;;;;37.40;26.42;;;;;;;0.54;76.02;99575.52;127614;1104;22638;-78
2021/03/15 02:43:28;;;;;;;39.73;26.52;;;;;;;0.53;76.19;99573.84;127623;1102;22530;-78
2021/03/15 02:46:03;;;;;;;34.25;24.18;;;;;;;0.56;75.72;99569.22;127544;1104;22515;-78
2021/03/15 02:48:35;;;;;;;31.80;23.73;;;;;;;0.58;76.03;99579.52;128015;1103;22511;-76
2021/03/15 02:51:07;;;;;;;35.73;24.90;;;;;;;0.55;76.39;99580.58;127961;1102;22506;-77
2021/03/15 02:53:36;;;;;;;34.95;25.77;;;;;;;0.59;77.05;99581.16;127596;1105;22588;-77
2021/03/15 02:56:15;;;;;;;37.40;24.98;;;;;;;0.63;76.53;99580.80;127674;1101;22696;-77
2021/03/15 02:58:44;;;;;;;33.28;21.87;;;;;;;0.69;76.53;99579.47;128005;1101;22511;-76
2021/03/15 03:01:17;;;;;;;32.40;23.70;;;;;;;0.73;76.04;99585.23;128039;1101;22494;-77
2021/03/15 03:03:48;;;;;;;26.97;21.50;;;;;;;0.74;76.45;99581.71;128004;1099;25100;-77
2021/03/15 03:06:20;;;;;;;26.57;20.33;;;;;;;0.74;75.94;99577.34;128193;1100;25103;-77
2021/03/15 03:08:52;;;;;;;28.05;20.72;;;;;;;0.77;76.60;99584.89;128004;1101;25257;-76
2021/03/15 03:11:23;;;;;;;25.70;21.20;;;;;;;0.77;76.12;99582.29;128065;1101;24259;-77
2021/03/15 03:13:53;;;;;;;29.10;20.90;;;;;;;0.79;76.54;99588.17;128010;1101;22530;-77
2021/03/15 03:16:28;;;;;;;25.90;21.33;;;;;;;0.77;76.77;99582.29;128000;1101;22511;-77
2021/03/15 03:18:59;;;;;;;25.05;20.48;;;;;;;0.77;76.54;99584.89;128218;1099;22514;-77
2021/03/15 03:21:29;;;;;;;22.93;19.95;;;;;;;0.79;76.08;99582.97;128249;1100;22538;-77
2021/03/15 03:23:58;;;;;;;27.65;20.75;;;;;;;0.81;76.59;99588.88;128203;1100;22573;-77
2021/03/15 03:26:29;;;;;;;23.52;19.62;;;;;;;0.83;76.06;99586.97;128003;1101;22583;-77
2021/03/15 03:28:59;;;;;;;24.75;19.32;;;;;;;0.84;75.95;99586.04;127971;1101;23351;-77
2021/03/15 03:31:31;;;;;;;25.45;18.73;;;;;;;0.84;76.04;99582.62;128119;1101;22616;-77
2021/03/15 03:34:00;;;;;;;21.15;18.55;;;;;;;0.84;75.85;99586.04;128256;1099;22523;-77
2021/03/15 03:36:29;;;;;;;22.07;17.10;;;;;;;0.83;75.79;99581.77;128211;1099;22488;-77
2021/03/15 03:38:57;;;;;;;19.85;17.02;;;;;;;0.83;76.40;99581.77;128017;1101;24600;-78
2021/03/15 03:41:25;;;;;;;20.77;15.78;;;;;;;0.85;75.86;99585.08;127937;1101;25019;-77
2021/03/15 03:44:08;;;;;;;22.85;17.12;;;;;;;0.88;76.56;99587.44;128039;1100;23251;-77
2021/03/15 03:46:39;;;;;;;21.15;16.02;;;;;;;0.93;76.54;99582.70;128244;1099;23456;-77
2021/03/15 03:49:09;;;;;;;16.10;14.40;;;;;;;0.99;77.39;99580.53;128237;1101;22488;-77
2021/03/15 03:51:49;;;;;;;17.45;15.55;;;;;;;1.06;76.92;99581.67;128286;1101;22631;-77
2021/03/15 03:54:30;;;;;;;22.30;16.57;;;;;;;1.12;77.48;99581.17;128195;1101;22537;-76
2021/03/15 03:57:13;;;;;;;20.85;18.02;;;;;;;1.18;76.90;99585.88;128278;1101;22492;-77
2021/03/15 03:59:50;;;;;;;22.85;15.98;;;;;;;1.24;77.03;99584.56;128190;1101;22469;-77
2021/03/15 04:02:24;;;;;;;21.52;16.15;;;;;;;1.27;77.25;99585.12;128019;1101;24229;-77
2021/03/15 04:05:08;;;;;;;20.72;16.35;;;;;;;1.32;76.53;99588.16;128233;1101;22493;-78
2021/03/15 04:07:44;;;;;;;21.95;16.82;;;;;;;1.36;77.44;99591.33;128037;1101;22502;-77
2021/03/15 04:10:13;;;;;;;19.87;16.62;;;;;;;1.36;76.46;99589.55;128004;1101;25009;-77
2021/03/15 04:12:52;;;;;;;24.20;18.17;;;;;;;1.41;76.42;99589.18;128244;1099;24455;-78
2021/03/15 04:15:20;;;;;;;24.00;16.80;;;;;;;1.43;77.38;99587.26;128240;1100;22573;-77
2021/03/15 04:17:50;;;;;;;23.85;16.32;;;;;;;1.46;76.87;99593.98;128199;1101;23427;-77
2021/03/15 04:20:41;;;;;;;18.95;16.17;;;;;;;1.47;77.30;99590.45;128258;1099;22598;-78
2021/03/15 04:23:17;;;;;;;19.80;17.70;;;;;;;1.50;76.79;99595.38;128205;1101;22520;-77
2021/03/15 04:25:47;;;;;;;21.55;17.32;;;;;;;1.50;76.82;99588.42;128055;1101;22505;-77
2021/03/15 04:28:16;;;;;;;21.27;16.25;;;;;;;1.52;76.52;99589.09;128234;1100;22493;-77
2021/03/15 04:30:45;;;;;;;23.70;17.67;;;;;;;1.52;76.57;99578.69;128214;1099;22570;-77
2021/03/15 04:33:14;;;;;;;22.40;16.60;;;;;;;1.53;77.12;99590.73;128209;1100;22587;-77
2021/03/15 04:35:43;;;;;;;21.90;16.67;;;;;;;1.54;76.45;99591.59;128039;1101;24272;-77
2021/03/15 04:38:12;;;;;;;23.52;17.42;;;;;;;1.57;76.22;99596.54;128054;1101;22680;-77
2021/03/15 04:40:46;;;;;;;23.40;18.03;;;;;;;1.58;77.03;99600.78;128218;1099;23403;-77
2021/03/15 04:43:15;;;;;;;25.88;20.30;;;;;;;1.58;76.92;99596.40;128226;1100;22488;-77
2021/03/15 04:45:44;;;;;;;22.22;18.73;;;;;;;1.62;76.80;99600.39;128052;1100;22582;-76
2021/03/15 04:48:18;;;;;;;21.90;17.92;;;;;;;1.64;76.42;99603.70;128023;1100;24090;-78
2021/03/15 04:50:59;;;;;;;21.17;18.45;;;;;;;1.67;77.05;99605.23;128185;1100;22604;-77
2021/03/15 04:53:30;;;;;;;28.85;20.50;;;;;;;1.70;76.90;99607.58;128147;1101;22821;-77
2021/03/15 04:56:06;;;;;;;30.48;22.35;;;;;;;1.71;76.91;99603.19;128251;1101;22521;-78
2021/03/15 04:58:38;;;;;;;30.57;24.10;;;;;;;1.71;76.93;99606.61;128233;1099;22777;-79
2021/03/15 05:01:07;;;;;;;28.20;21.52;;;;;;;1.71;76.21;99604.01;128263;1100;22495;-79
2021/03/15 05:03:38;;;;;;;28.77;22.25;;;;;;;1.70;75.99;99599.77;128069;1100;22490;-76
2021/03/15 05:06:08;;;;;;;32.88;21.00;;;;;;;1.71;76.07;99606.61;128210;1100;24575;-78
2021/03/15 05:08:46;;;;;;;26.55;21.93;;;;;;;1.71;76.11;99608.39;128203;1099;22521;-77
2021/03/15 05:11:17;;;;;;;30.62;22.75;;;;;;;1.71;75.78;99617.02;128070;1101;24591;-78
2021/03/15 05:13:46;;;;;;;25.08;21.20;;;;;;;1.73;76.36;99615.09;128108;1101;22945;-78
2021/03/15 05:16:15;;;;;;;25.82;21.15;;;;;;;1.76;76.91;99616.62;128024;1101;22474;-78
2021/03/15 05:18:44;;;;;;;32.53;27.30;;;;;;;1.81;76.54;99614.47;128271;1101;22523;-77
2021/03/15 05:21:12;;;;;;;30.62;24.20;;;;;;;1.86;76.78;99620.10;128171;1099;24255;-77
2021/03/15 05:23:40;;;;;;;28.07;22.07;;;;;;;1.92;76.34;99623.98;128205;1101;22567;-78
2021/03/15 05:26:10;;;;;;;35.48;24.57;;;;;;;1.96;77.04;99626.18;128021;1101;24575;-77
2021/03/15 05:28:40;;;;;;;32.65;26.77;;;;;;;2.01;76.68;99621.42;128040;1101;22496;-78
2021/03/15 05:31:12;;;;;;;32.53;25.55;;;;;;;2.04;76.13;99618.55;128277;1101;22499;-77
2021/03/15 05:33:42;;;;;;;29.20;24.02;;;;;;;2.09;76.62;99623.36;128081;1101;22529;-77
2021/03/15 05:36:12;;;;;;;30.95;25.57;;;;;;;2.10;75.88;99615.43;127987;1101;22480;-78
2021/03/15 05:38:40;;;;;;;32.55;24.45;;;;;;;2.12;76.70;99623.10;128238;1100;22682;-77
2021/03/15 05:41:12;;;;;;;33.02;26.17;;;;;;;2.15;75.94;99617.63;128217;1099;22486;-78
2021/03/15 05:44:35;;;;;;;32.00;25.48;;;;;;;2.16;76.36;99621.88;128236;1100;22615;-78
2021/03/15 05:47:54;;;;;;;34.75;27.58;;;;;;;2.17;76.54;99628.76;127616;1103;24756;-78
2021/03/15 05:50:35;;;;;;;34.70;27.80;;;;;;;2.21;76.19;99627.53;127909;1102;24360;-77
2021/03/15 05:53:44;;;;;;;33.42;26.23;;;;;;;2.26;76.18;99627.13;127596;1104;22609;-77
2021/03/15 05:57:00;;;;;;;28.75;24.72;;;;;;;2.30;76.39;99631.95;127983;1104;25056;-78
2021/03/15 06:00:26;;;;;;;47.30;39.98;;;;;;;2.26;76.26;99630.55;128001;1105;22563;-79
2021/03/15 06:03:12;;;;;;;47.98;34.67;;;;;;;2.04;75.29;99633.36;128008;1102;22591;-78
2021/03/15 06:05:47;;;;;;;46.58;32.93;;;;;;;1.89;75.78;99633.69;128024;1103;24423;-77
2021/03/15 06:08:22;;;;;;;42.17;32.30;;;;;;;1.84;75.49;99638.48;127911;1104;24769;-78
2021/03/15 06:11:11;;;;;;;43.25;33.60;;;;;;;1.91;76.31;99632.76;127957;1104;25148;-78
2021/03/15 06:13:40;;;;;;;42.62;32.63;;;;;;;2.00;76.58;99632.80;127943;1103;22533;-78
2021/03/15 06:16:10;;;;;;;45.48;33.15;;;;;;;2.10;76.25;99638.88;127617;1104;22494;-78
2021/03/15 06:18:40;;;;;;;49.70;34.67;;;;;;;2.18;76.24;99638.21;127531;1105;22556;-79
2021/03/15 06:21:13;;;;;;;48.05;33.30;;;;;;;2.26;76.89;99638.36;128005;1104;22593;-77
2021/03/15 06:23:44;;;;;;;42.57;33.20;;;;;;;2.34;75.86;99642.94;128097;1101;22521;-77
2021/03/15 06:26:12;;;;;;;49.08;33.45;;;;;;;2.39;76.29;99645.95;128000;1101;24375;-78
2021/03/15 06:28:40;;;;;;;48.80;37.45;;;;;;;2.44;76.49;99645.58;128217;1101;22500;-78
2021/03/15 06:31:11;;;;;;;46.90;34.30;;;;;;;2.52;76.51;99651.76;127997;1101;22513;-78
2021/03/15 06:33:43;;;;;;;44.18;32.83;;;;;;;2.60;76.48;99643.29;128032;1101;22504;-78
2021/03/15 06:36:12;;;;;;;40.50;31.25;;;;;;;2.69;75.71;99637.25;128027;1101;22601;-77
2021/03/15 06:38:43;;;;;;;59.23;45.85;;;;;;;2.78;76.57;99643.45;128278;1101;22526;-78
2021/03/15 06:41:15;;;;;;;50.43;39.60;;;;;;;2.86;76.12;99647.98;128067;1101;22492;-77
2021/03/15 06:43:44;;;;;;;50.05;34.90;;;;;;;2.90;76.19;99644.13;128237;1100;22521;-78
2021/03/15 06:46:15;;;;;;;50.38;35.33;;;;;;;2.88;75.36;99646.08;127995;1101;22529;-78
2021/03/15 06:48:44;;;;;;;59.27;42.93;;;;;;;2.90;75.48;99647.59;128194;1101;22645;-77
2021/03/15 06:51:14;;;;;;;63.70;42.85;;;;;;;2.82;75.04;99645.64;127985;1101;22461;-78
2021/03/15 06:53:43;;;;;;;57.62;39.33;;;;;;;2.69;74.18;99650.28;128017;1101;22591;-77
2021/03/15 06:56:15;;;;;;;57.25;40.17;;;;;;;2.60;75.17;99648.51;128115;1101;22683;-80
2021/03/15 06:58:51;;;;;;;57.38;43.33;;;;;;;2.58;74.88;99645.20;128251;1100;22493;-77
2021/03/15 07:01:25;;;;;;;54.13;41.53;;;;;;;2.61;75.04;99650.14;128338;1099;22646;-77
2021/03/15 07:04:08;;;;;;;65.83;46.60;;;;;;;2.63;75.68;99648.21;128037;1101;24385;-77
2021/03/15 07:06:42;;;;;;;62.33;43.13;;;;;;;2.65;75.32;99650.70;128262;1101;22509;-77
2021/03/15 07:09:16;;;;;;;60.78;42.35;;;;;;;2.73;75.94;99648.23;128031;1101;22936;-77
2021/03/15 07:11:44;;;;;;;63.70;49.50;;;;;;;2.76;74.79;99655.79;128034;1101;24577;-77
2021/03/15 07:14:26;;;;;;;68.67;48.50;;;;;;;2.81;75.81;99657.05;128069;1100;22500;-76
2021/03/15 07:17:01;;;;;;;57.95;45.03;;;;;;;2.91;75.17;99648.41;128253;1101;24581;-77
2021/03/15 07:19:30;;;;;;;59.10;46.97;;;;;;;2.99;75.92;99651.16;128317;1099;22935;-77
2021/03/15 07:21:58;;;;;;;59.10;44.83;;;;;;;3.06;75.42;99647.03;128012;1101;22482;-77
2021/03/15 07:24:31;;;;;;;55.38;42.88;;;;;;;3.14;75.34;99641.97;128017;1101;22493;-77
2021/03/15 07:26:59;;;;;;;56.77;42.65;;;;;;;3.21;74.65;99645.67;128099;1100;22511;-78
2021/03/15 07:29:29;;;;;;;61.90;43.85;;;;;;;3.28;75.29;99644.16;128222;1100;24439;-77
2021/03/15 07:31:58;;;;;;;65.50;49.08;;;;;;;3.38;74.79;99653.78;128062;1100;22578;-77
2021/03/15 07:34:27;;;;;;;45.38;35.55;;;;;;;3.48;74.83;99650.19;128267;1101;24597;-79
2021/03/15 07:36:58;;;;;;;39.48;29.77;;;;;;;3.59;74.94;99649.20;127988;1101;24429;-78
2021/03/15 07:39:29;;;;;;;33.80;26.97;;;;;;;3.66;75.02;99645.06;128059;1101;22522;-78
2021/03/15 07:42:01;;;;;;;56.02;41.40;;;;;;;3.76;74.57;99653.70;128048;1099;23972;-78
2021/03/15 07:44:35;;;;;;;52.05;35.52;;;;;;;3.89;75.08;99663.03;128227;1100;22530;-78
2021/03/15 07:47:06;;;;;;;55.92;38.75;;;;;;;4.00;74.73;99660.27;128021;1101;22605;-78
2021/03/15 07:49:41;;;;;;;87.43;54.23;;;;;;;4.08;74.70;99660.36;128021;1101;22492;-78
2021/03/15 07:52:13;;;;;;;68.70;46.77;;;;;;;4.12;74.39;99658.28;128039;1101;22490;-78
2021/03/15 07:54:44;;;;;;;70.67;43.85;;;;;;;4.22;74.45;99662.50;128011;1101;24584;-77
2021/03/15 07:57:24;;;;;;;69.58;51.90;;;;;;;4.31;73.98;99667.85;128054;1099;22903;-77
2021/03/15 07:59:57;;;;;;;50.33;36.28;;;;;;;4.36;73.26;99666.44;128218;1099;24956;-77
2021/03/15 08:02:29;;;;;;;38.63;31.07;;;;;;;4.33;72.66;99671.13;128285;1099;22570;-77
2021/03/15 08:04:59;;;;;;;39.43;30.47;;;;;;;4.31;73.19;99668.67;128046;1101;22822;-78
2021/03/15 08:07:31;;;;;;;40.73;30.35;;;;;;;4.39;72.64;99670.55;127980;1101;24350;-77
2021/03/15 08:10:00;;;;;;;40.25;32.50;;;;;;;4.48;73.17;99674.92;128251;1099;25294;-77
2021/03/15 08:12:35;;;;;;;37.30;28.57;;;;;;;4.55;72.79;99668.14;128019;1101;22528;-77
2021/03/15 08:15:09;;;;;;;42.58;34.05;;;;;;;4.65;72.45;99675.94;128054;1101;22517;-78
2021/03/15 08:17:45;;;;;;;45.83;36.88;;;;;;;4.80;73.09;99668.41;128031;1101;22532;-77
2021/03/15 08:20:17;;;;;;;38.90;32.28;;;;;;;4.94;72.79;99662.69;128015;1101;22486;-79
2021/03/15 08:22:51;;;;;;;50.15;39.95;;;;;;;5.06;72.49;99664.09;128351;1100;23506;-77
2021/03/15 08:25:23;;;;;;;39.38;31.87;;;;;;;5.26;72.31;99663.95;127974;1101;22522;-78
2021/03/15 08:27:57;;;;;;;46.45;31.10;;;;;;;5.55;72.27;99669.77;128029;1101;23254;-77
2021/03/15 08:30:30;;;;;;;32.53;27.05;;;;;;;5.84;72.24;99666.05;128266;1099;22738;-77
2021/03/15 08:32:59;;;;;;;42.53;32.63;;;;;;;6.04;71.53;99671.94;128076;1101;22490;-77
2021/03/15 08:35:29;;;;;;;43.48;34.88;;;;;;;6.20;70.51;99669.41;128057;1101;24343;-78
2021/03/15 08:38:05;;;;;;;37.98;28.75;;;;;;;6.34;69.69;99668.81;127958;1101;22498;-77
2021/03/15 08:40:45;;;;;;;50.38;34.98;;;;;;;6.42;69.34;99672.45;128267;1101;23152;-77
2021/03/15 08:43:18;;;;;;;33.85;26.05;;;;;;;6.43;68.83;99671.45;128261;1099;24594;-76
2021/03/15 08:45:58;;;;;;;37.78;25.92;;;;;;;6.41;68.38;99669.00;128294;1100;22487;-77
2021/03/15 08:48:38;;;;;;;44.48;31.82;;;;;;;6.43;67.90;99664.44;128236;1101;22516;-77
2021/03/15 08:51:10;;;;;;;41.70;31.42;;;;;;;6.41;67.35;99663.76;128377;1099;23297;-77
2021/03/15 08:53:42;;;;;;;44.38;34.38;;;;;;;6.41;67.79;99660.31;128222;1101;22502;-77
2021/03/15 08:56:11;;;;;;;42.30;32.23;;;;;;;6.34;67.00;99660.13;128187;1099;24350;-77
2021/03/15 08:58:45;;;;;;;47.97;40.00;;;;;;;6.23;66.85;99661.23;128278;1100;23254;-77
2021/03/15 09:01:17;;;;;;;45.90;36.50;;;;;;;6.14;67.17;99662.16;127987;1101;24351;-77
2021/03/15 09:04:00;;;;;;;41.60;35.25;;;;;;;6.08;67.19;99663.59;128155;1101;22637;-78
2021/03/15 09:06:38;;;;;;;39.10;33.63;;;;;;;6.07;67.39;99659.34;128001;1101;25163;-77
2021/03/15 09:09:20;;;;;;;50.98;42.17;;;;;;;6.08;67.30;99660.97;128285;1101;23409;-78
2021/03/15 09:11:51;;;;;;;68.70;61.35;;;;;;;6.11;67.09;99649.36;128270;1099;22530;-80
2021/03/15 09:14:25;;;;;;;61.37;54.97;;;;;;;6.10;67.32;99655.59;128051;1101;22522;-79
2021/03/15 09:29:39;;;;;;;26.50;20.65;;;;;;;5.98;67.58;99656.82;128336;1099;22589;-79
2021/03/15 09:32:11;;;;;;;33.63;25.02;;;;;;;6.03;68.48;99655.39;127837;1101;22670;-80
2021/03/15 09:34:39;;;;;;;36.15;26.23;;;;;;;6.10;68.30;99659.03;127870;1101;22489;-79
2021/03/15 09:37:08;;;;;;;32.65;24.10;;;;;;;6.14;67.84;99654.30;127800;1101;22491;-79
2021/03/15 09:39:36;;;;;;;35.80;26.25;;;;;;;6.17;67.38;99653.98;127909;1101;24337;-79
2021/03/15 09:42:08;;;;;;;39.03;27.20;;;;;;;6.20;67.20;99647.58;127812;1100;24392;-78
2021/03/15 09:44:42;;;;;;;37.93;27.97;;;;;;;6.25;67.39;99646.14;127797;1099;22521;-78
2021/03/15 09:47:23;;;;;;;38.15;28.52;;;;;;;6.28;67.81;99650.26;128046;1100;22526;-78
2021/03/15 09:49:52;;;;;;;40.43;28.45;;;;;;;6.32;67.59;99641.09;127854;1101;24578;-78
2021/03/15 09:52:32;;;;;;;32.28;26.15;;;;;;;6.35;67.50;99646.84;127842;1101;22598;-78
2021/03/15 09:55:05;;;;;;;32.75;25.12;;;;;;;6.33;66.74;99648.81;127860;1101;24467;-79
2021/03/15 09:57:35;;;;;;;32.35;23.25;;;;;;;6.31;67.30;99653.39;127750;1101;22599;-78
2021/03/15 10:00:11;;;;;;;29.35;21.55;;;;;;;6.28;67.44;99653.70;127800;1101;22559;-78
2021/03/15 10:02:46;;;;;;;40.35;26.75;;;;;;;6.34;67.17;99660.94;127811;1101;22484;-79
2021/03/15 10:05:34;;;;;;;37.08;19.90;;;;;;;6.44;67.27;99660.00;127629;1101;22500;-79
2021/03/15 10:08:23;;;;;;;22.95;17.02;;;;;;;6.50;67.06;99654.95;127856;1101;23307;-79
2021/03/15 10:11:16;;;;;;;24.82;16.20;;;;;;;6.56;67.54;99653.47;127883;1101;22486;-79
2021/03/15 10:14:24;;;;;;;22.37;16.42;;;;;;;6.62;67.23;99649.40;127433;1101;24304;-79
2021/03/15 10:17:07;;;;;;;21.05;16.17;;;;;;;6.59;66.36;99658.41;127868;1101;24593;-79
2021/03/15 10:19:45;;;;;;;22.07;17.57;;;;;;;6.54;66.59;99655.45;127820;1101;22486;-78
2021/03/15 10:22:19;;;;;;;21.40;15.93;;;;;;;6.51;66.13;99651.33;128054;1100;22484;-79
2021/03/15 10:24:52;;;;;;;21.02;16.05;;;;;;;6.51;66.85;99646.09;127843;1101;23248;-79
2021/03/15 10:27:28;;;;;;;21.97;17.13;;;;;;;6.56;66.32;99646.45;127842;1101;22496;-78
2021/03/15 10:30:12;;;;;;;28.87;14.07;;;;;;;6.68;67.13;99646.14;127892;1100;24632;-79
2021/03/15 10:32:43;;;;;;;17.95;14.43;;;;;;;6.83;66.65;99639.27;127832;1101;24600;-78
2021/03/15 10:35:14;;;;;;;25.02;17.02;;;;;;;6.94;66.20;99641.61;127883;1101;22527;-79
2021/03/15 10:37:53;;;;;;;28.98;20.85;;;;;;;7.04;65.91;99636.20;127863;1101;22524;-78
2021/03/15 10:40:37;;;;;;;26.12;19.25;;;;;;;7.06;65.93;99640.33;127849;1101;25097;-79
2021/03/15 10:43:18;;;;;;;30.10;24.23;;;;;;;7.06;65.23;99629.81;127843;1100;22481;-77
2021/03/15 10:45:46;;;;;;;22.70;18.05;;;;;;;7.00;65.11;99634.90;127815;1101;23310;-79
2021/03/15 10:48:16;;;;;;;22.55;19.95;;;;;;;6.96;64.90;99633.55;128194;1099;22575;-81
2021/03/15 10:50:55;;;;;;;25.80;20.20;;;;;;;6.90;64.84;99640.30;128435;1101;22488;-79
2021/03/15 10:53:53;;;;;;;26.30;23.60;;;;;;;6.80;64.78;99632.56;128085;1101;23048;-78
2021/03/15 10:56:33;;;;;;;26.17;21.37;;;;;;;6.70;65.01;99638.94;127992;1101;22473;-79
2021/03/15 10:59:32;;;;;;;24.57;19.80;;;;;;;6.64;65.31;99639.58;128047;1101;22995;-79
2021/03/15 11:02:04;;;;;;;21.20;18.23;;;;;;;6.54;65.07;99643.14;128232;1100;22491;-79
2021/03/15 11:04:43;;;;;;;22.13;19.07;;;;;;;6.49;65.04;99639.34;128125;1100;24361;-80
2021/03/15 11:07:30;;;;;;;24.27;21.10;;;;;;;6.45;65.80;99638.84;128141;1101;22499;-80
2021/03/15 11:10:26;;;;;;;27.98;21.73;;;;;;;6.40;65.99;99628.02;127991;1101;22518;-79
2021/03/15 11:13:14;;;;;;;24.75;22.07;;;;;;;6.44;66.38;99623.27;128034;1101;22499;-80
2021/03/15 11:15:44;;;;;;;22.30;19.95;;;;;;;6.56;66.83;99625.45;127963;1101;22532;-79
2021/03/15 11:18:25;;;;;;;26.27;22.50;;;;;;;6.66;66.88;99624.47;127955;1101;22670;-78
2021/03/15 11:21:01;;;;;;;23.07;20.37;;;;;;;6.69;66.62;99626.78;127952;1101;23476;-79
2021/03/15 11:23:59;;;;;;;20.23;18.12;;;;;;;6.65;66.43;99621.03;127870;1101;23058;-81
2021/03/15 11:26:55;;;;;;;18.23;16.25;;;;;;;6.72;66.76;99610.70;128061;1101;22616;-78
2021/03/15 11:29:38;;;;;;;18.12;15.55;;;;;;;6.91;67.50;99607.80;127939;1101;22518;-81
2021/03/15 11:32:16;;;;;;;21.02;14.28;;;;;;;7.13;67.53;99613.37;128132;1099;24431;-80
2021/03/15 11:34:51;;;;;;;17.57;15.38;;;;;;;7.30;67.33;99615.05;127953;1101;22680;-80
2021/03/15 11:37:26;;;;;;;16.48;14.55;;;;;;;7.46;67.18;99616.83;128118;1100;22495;-80
2021/03/15 11:40:02;;;;;;;13.13;11.70;;;;;;;7.57;66.78;99611.25;127958;1101;22492;-80
2021/03/15 11:42:38;;;;;;;13.25;11.85;;;;;;;7.66;65.98;99606.78;127941;1099;22495;-79
2021/03/15 11:45:11;;;;;;;12.20;10.98;;;;;;;7.79;66.06;99604.45;127954;1101;22594;-82
2021/03/15 11:47:42;;;;;;;10.93;9.40;;;;;;;7.91;65.64;99604.94;127961;1101;22490;-80
2021/03/15 11:50:20;;;;;;;9.53;8.03;;;;;;;7.95;65.14;99603.60;128014;1101;22513;-81
2021/03/15 11:53:04;;;;;;;13.20;10.05;;;;;;;7.96;64.84;99597.34;127981;1101;22759;-81
2021/03/15 11:55:35;;;;;;;14.65;9.90;;;;;;;7.97;64.96;99597.19;127948;1099;22487;-80
2021/03/15 11:58:05;;;;;;;9.45;8.55;;;;;;;8.02;64.83;99594.85;127988;1099;22499;-80
2021/03/15 12:00:33;;;;;;;22.10;17.57;;;;;;;8.07;64.67;99588.29;128150;1101;22858;-80
2021/03/15 12:03:15;;;;;;;16.82;14.10;;;;;;;8.10;64.38;99586.14;127948;1101;25191;-81
2021/03/15 12:06:01;;;;;;;14.93;13.43;;;;;;;8.11;64.09;99586.95;128186;1101;23822;-79